createdAt,value
2018-01-29T00:00:48.295Z,3.57
2018-01-29T00:03:15.758Z,3.80
2018-01-29T00:05:43.233Z,3.07
2018-01-29T00:08:10.811Z,3.77
2018-01-29T00:10:38.270Z,3.20
2018-01-29T00:13:05.748Z,3.80
2018-01-29T00:15:33.971Z,3.97
2018-01-29T00:18:01.482Z,4.10
2018-01-29T00:20:30.765Z,4.33
2018-01-29T00:23:00.837Z,3.83
2018-01-29T00:25:29.209Z,4.10
2018-01-29T00:27:57.506Z,4.20
2018-01-29T00:30:26.086Z,4.20
2018-01-29T00:32:53.703Z,4.40
2018-01-29T00:35:21.958Z,4.77
2018-01-29T00:37:49.560Z,4.90
2018-01-29T00:40:17.483Z,4.40
2018-01-29T00:42:46.499Z,5.00
2018-01-29T00:45:14.117Z,4.60
2018-01-29T00:47:41.967Z,6.00
2018-01-29T00:50:09.724Z,4.60
2018-01-29T00:52:37.214Z,4.70
2018-01-29T00:55:06.898Z,4.57
2018-01-29T00:57:34.421Z,4.80
2018-01-29T01:00:01.994Z,3.80
2018-01-29T01:02:29.531Z,4.10
2018-01-29T01:05:01.078Z,4.10
2018-01-29T01:07:29.842Z,4.57
2018-01-29T01:09:58.264Z,4.60
2018-01-29T01:12:26.690Z,3.80
2018-01-29T01:14:54.160Z,3.47
2018-01-29T01:17:23.048Z,4.13
2018-01-29T01:19:51.902Z,3.73
2018-01-29T01:22:20.347Z,4.33
2018-01-29T01:24:48.744Z,4.63
2018-01-29T01:27:18.537Z,4.50
2018-01-29T01:29:48.391Z,4.83
2018-01-29T01:32:16.206Z,4.73
2018-01-29T01:34:43.688Z,4.13
2018-01-29T01:37:11.182Z,4.30
2018-01-29T01:39:39.373Z,4.20
2018-01-29T01:42:06.827Z,3.37
2018-01-29T01:44:34.289Z,3.43
2018-01-29T01:47:01.758Z,4.10
2018-01-29T01:49:31.019Z,4.40
2018-01-29T01:51:59.006Z,4.00
2018-01-29T01:54:26.498Z,3.47
2018-01-29T01:56:53.983Z,3.97
2018-01-29T01:59:21.457Z,4.10
2018-01-29T02:01:48.950Z,3.53
2018-01-29T02:04:16.522Z,3.90
2018-01-29T02:06:44.750Z,3.90
2018-01-29T02:09:13.693Z,4.40
2018-01-29T02:11:41.154Z,4.60
2018-01-29T02:14:08.631Z,4.53
2018-01-29T02:16:36.103Z,3.50
2018-01-29T02:19:03.570Z,4.77
2018-01-29T02:21:31.146Z,4.37
2018-01-29T02:23:59.293Z,5.03
2018-01-29T02:26:26.766Z,4.77
2018-01-29T02:28:54.649Z,3.87
2018-01-29T02:31:22.206Z,5.97
2018-01-29T02:33:51.189Z,4.50
2018-01-29T02:36:21.589Z,5.27
2018-01-29T02:38:49.058Z,4.23
2018-01-29T02:41:17.138Z,5.00
2018-01-29T02:43:44.615Z,4.00
2018-01-29T02:46:12.090Z,4.90
2018-01-29T02:48:40.319Z,4.87
2018-01-29T02:51:07.799Z,4.50
2018-01-29T02:53:35.266Z,4.27
2018-01-29T02:56:03.530Z,6.60
2018-01-29T02:58:31.009Z,6.20
2018-01-29T03:00:59.242Z,4.80
2018-01-29T03:03:26.714Z,4.70
2018-01-29T03:05:54.173Z,4.73
2018-01-29T03:08:22.405Z,5.20
2018-01-29T03:10:50.527Z,5.30
2018-01-29T03:13:19.842Z,4.17
2018-01-29T03:15:48.093Z,5.03
2018-01-29T03:18:15.662Z,5.23
2018-01-29T03:20:43.333Z,5.63
2018-01-29T03:23:11.574Z,4.70
2018-01-29T03:25:39.826Z,3.43
2018-01-29T03:28:07.294Z,4.63
2018-01-29T03:30:35.566Z,4.80
2018-01-29T03:33:03.062Z,4.90
2018-01-29T03:35:30.531Z,5.70
2018-01-29T03:37:58.783Z,4.10
2018-01-29T03:40:26.263Z,5.87
2018-01-29T03:42:54.506Z,3.93
2018-01-29T03:45:21.973Z,5.33
2018-01-29T03:47:49.443Z,5.27
2018-01-29T03:50:16.930Z,5.83
2018-01-29T03:52:44.390Z,5.20
2018-01-29T03:55:11.859Z,4.57
2018-01-29T03:57:39.332Z,5.00
2018-01-29T04:00:06.818Z,4.53
2018-01-29T04:02:34.283Z,4.77
2018-01-29T04:05:01.738Z,4.30
2018-01-29T04:07:29.202Z,5.50
2018-01-29T04:09:57.439Z,4.80
2018-01-29T04:12:24.895Z,6.40
2018-01-29T04:14:52.353Z,4.27
2018-01-29T04:17:20.457Z,4.30
2018-01-29T04:19:48.750Z,5.13
2018-01-29T04:22:16.961Z,4.50
2018-01-29T04:24:44.458Z,5.33
2018-01-29T04:27:11.910Z,4.60
2018-01-29T04:29:39.469Z,4.20
2018-01-29T04:32:06.938Z,4.13
2018-01-29T04:34:35.176Z,4.30
2018-01-29T04:37:02.631Z,4.77
2018-01-29T04:39:30.997Z,4.17
2018-01-29T04:41:59.409Z,3.27
2018-01-29T04:44:37.717Z,3.87
2018-01-29T04:47:05.237Z,4.53
2018-01-29T04:49:32.714Z,6.37
2018-01-29T04:52:00.198Z,4.03
2018-01-29T04:54:27.666Z,4.17
2018-01-29T04:56:55.122Z,3.47
2018-01-29T04:59:22.671Z,4.27
2018-01-29T05:01:50.146Z,4.43
2018-01-29T05:04:18.374Z,3.93
2018-01-29T05:06:45.842Z,3.13
2018-01-29T05:09:13.299Z,3.10
2018-01-29T05:11:40.876Z,3.20
2018-01-29T05:14:08.334Z,4.17
2018-01-29T05:16:35.848Z,3.17
2018-01-29T05:19:03.451Z,3.67
2018-01-29T05:21:31.685Z,2.77
2018-01-29T05:24:00.198Z,3.70
2018-01-29T05:26:27.692Z,3.63
2018-01-29T05:28:55.927Z,3.80
2018-01-29T05:31:24.591Z,3.33
2018-01-29T05:33:52.221Z,3.10
2018-01-29T05:36:21.058Z,2.70
2018-01-29T05:38:50.342Z,2.97
2018-01-29T05:41:17.815Z,3.23
2018-01-29T05:43:45.290Z,2.77
2018-01-29T05:46:12.774Z,3.10
2018-01-29T05:48:41.010Z,2.83
2018-01-29T05:51:08.550Z,2.77
2018-01-29T05:53:36.029Z,3.23
2018-01-29T05:56:03.498Z,3.00
2018-01-29T05:58:31.021Z,2.43
2018-01-29T06:00:58.547Z,2.47
2018-01-29T06:03:26.122Z,2.67
2018-01-29T06:05:53.611Z,3.70
2018-01-29T06:08:21.278Z,3.43
2018-01-29T06:10:48.733Z,3.10
2018-01-29T06:13:16.193Z,3.20
2018-01-29T06:15:43.670Z,3.17
2018-01-29T06:18:11.983Z,2.57
2018-01-29T06:20:39.425Z,2.73
2018-01-29T06:23:06.899Z,3.50
2018-01-29T06:25:34.358Z,3.40
2018-01-29T06:28:01.830Z,3.13
2018-01-29T06:30:29.320Z,3.77
2018-01-29T06:32:56.823Z,3.30
2018-01-29T06:35:24.323Z,3.13
2018-01-29T06:37:51.794Z,3.83
2018-01-29T06:40:19.271Z,2.87
2018-01-29T06:42:47.508Z,3.43
2018-01-29T06:45:14.970Z,3.40
2018-01-29T06:47:42.533Z,3.20
2018-01-29T06:50:09.995Z,3.57
2018-01-29T06:52:38.354Z,3.00
2018-01-29T06:55:05.819Z,2.67
2018-01-29T06:57:33.282Z,3.30
2018-01-29T07:00:00.751Z,4.17
2018-01-29T07:02:29.009Z,3.13
2018-01-29T07:04:57.450Z,3.27
2018-01-29T07:07:24.926Z,3.10
2018-01-29T07:09:52.391Z,3.57
2018-01-29T07:12:20.727Z,3.77
2018-01-29T07:14:48.188Z,2.93
2018-01-29T07:17:15.664Z,3.73
2018-01-29T07:19:43.114Z,3.80
2018-01-29T07:22:10.605Z,2.60
2018-01-29T07:24:38.091Z,3.07
2018-01-29T07:27:06.318Z,3.47
2018-01-29T07:29:33.778Z,3.10
2018-01-29T07:32:01.292Z,3.60
2018-01-29T07:34:29.514Z,3.63
2018-01-29T07:36:56.986Z,3.43
2018-01-29T07:39:24.499Z,2.47
2018-01-29T07:41:52.058Z,2.70
2018-01-29T07:44:20.368Z,3.07
2018-01-29T07:46:47.938Z,3.30
2018-01-29T07:49:15.394Z,2.97
2018-01-29T07:51:42.869Z,2.60
2018-01-29T07:54:11.105Z,2.80
2018-01-29T07:56:39.202Z,3.00
2018-01-29T07:59:06.671Z,2.20
2018-01-29T08:01:34.906Z,2.60
2018-01-29T08:04:02.386Z,2.70
2018-01-29T08:06:29.862Z,2.50
2018-01-29T08:08:59.131Z,2.40
2018-01-29T08:11:26.782Z,2.50
2018-01-29T08:13:54.259Z,2.43
2018-01-29T08:16:21.719Z,2.80
2018-01-29T08:18:49.182Z,2.00
2018-01-29T08:21:16.647Z,2.60
2018-01-29T08:23:44.099Z,2.50
2018-01-29T08:26:12.322Z,1.97
2018-01-29T08:28:39.812Z,3.20
2018-01-29T08:31:07.278Z,2.10
2018-01-29T08:33:34.730Z,2.70
2018-01-29T08:36:02.210Z,2.63
2018-01-29T08:38:30.447Z,1.90
2018-01-29T08:40:57.905Z,2.83
2018-01-29T08:43:25.362Z,2.17
2018-01-29T08:45:52.847Z,2.30
2018-01-29T08:48:20.310Z,2.43
2018-01-29T08:50:48.545Z,2.03
2018-01-29T08:53:16.006Z,1.90
2018-01-29T08:55:43.481Z,1.77
2018-01-29T08:58:10.949Z,2.73
2018-01-29T09:00:39.184Z,2.17
2018-01-29T09:03:06.642Z,2.50
2018-01-29T09:05:34.102Z,2.60
2018-01-29T09:08:01.611Z,2.07
2018-01-29T09:10:29.837Z,3.93
2018-01-29T09:12:57.317Z,2.37
2018-01-29T09:15:24.877Z,2.00
2018-01-29T09:17:52.330Z,2.47
2018-01-29T09:20:19.891Z,2.47
2018-01-29T09:22:47.341Z,1.90
2018-01-29T09:25:14.803Z,2.60
2018-01-29T09:27:43.079Z,2.37
2018-01-29T09:30:10.537Z,2.50
2018-01-29T09:32:39.844Z,1.80
2018-01-29T09:35:07.351Z,2.70
2018-01-29T09:37:34.829Z,1.80
2018-01-29T09:40:02.302Z,2.47
2018-01-29T09:42:29.769Z,2.47
2018-01-29T09:44:58.243Z,2.93
2018-01-29T09:47:25.702Z,2.17
2018-01-29T09:49:53.170Z,2.33
2018-01-29T09:52:20.618Z,1.80
2018-01-29T09:54:48.090Z,2.43
2018-01-29T09:57:16.314Z,1.93
2018-01-29T09:59:43.803Z,2.47
2018-01-29T10:02:11.275Z,2.30
2018-01-29T10:04:39.635Z,2.03
2018-01-29T10:07:07.103Z,2.30
2018-01-29T10:09:34.651Z,2.30
2018-01-29T10:12:02.119Z,2.80
2018-01-29T10:14:29.579Z,1.77
2018-01-29T10:16:57.138Z,1.83
2018-01-29T10:19:24.598Z,2.90
2018-01-29T10:21:52.820Z,2.43
2018-01-29T10:24:21.129Z,1.90
2018-01-29T10:26:48.704Z,2.43
2018-01-29T10:29:16.151Z,2.00
2018-01-29T10:31:43.711Z,1.50
2018-01-29T10:34:11.266Z,1.90
2018-01-29T10:36:39.242Z,2.13
2018-01-29T10:39:06.789Z,1.70
2018-01-29T10:41:34.265Z,1.37
2018-01-29T10:44:01.719Z,1.60
2018-01-29T10:46:29.182Z,3.00
2018-01-29T10:48:57.418Z,2.10
2018-01-29T10:51:24.998Z,1.60
2018-01-29T10:53:52.457Z,1.50
2018-01-29T10:56:19.926Z,1.90
2018-01-29T10:58:47.407Z,2.23
2018-01-29T11:01:20.736Z,2.33
2018-01-29T11:03:48.214Z,1.87
2018-01-29T11:06:15.783Z,1.83
2018-01-29T11:08:43.247Z,1.80
2018-01-29T11:11:10.706Z,1.67
2018-01-29T11:13:38.951Z,1.53
2018-01-29T11:16:06.438Z,2.30
2018-01-29T11:18:33.884Z,1.60
2018-01-29T11:21:01.355Z,2.73
2018-01-29T11:23:29.583Z,1.90
2018-01-29T11:25:57.079Z,1.97
2018-01-29T11:28:24.538Z,2.10
2018-01-29T11:30:52.000Z,2.30
2018-01-29T11:33:19.453Z,2.20
2018-01-29T11:35:46.974Z,2.10
2018-01-29T11:38:14.418Z,2.10
2018-01-29T11:40:41.884Z,2.30
2018-01-29T11:43:09.349Z,2.03
2018-01-29T11:45:36.798Z,1.70
2018-01-29T11:48:04.389Z,2.33
2018-01-29T11:50:31.867Z,2.70
2018-01-29T11:53:00.115Z,2.23
2018-01-29T11:55:27.601Z,1.87
2018-01-29T11:57:55.814Z,2.60
2018-01-29T12:00:23.270Z,2.10
2018-01-29T12:02:50.745Z,1.90
2018-01-29T12:05:18.206Z,2.00
2018-01-29T12:07:45.674Z,2.10
2018-01-29T12:10:13.142Z,2.40
2018-01-29T12:12:41.367Z,1.97
2018-01-29T12:15:08.868Z,1.73
2018-01-29T12:17:36.326Z,1.97
2018-01-29T12:20:03.782Z,2.57
2018-01-29T12:22:31.261Z,2.30
2018-01-29T12:24:59.595Z,3.10
2018-01-29T12:27:27.046Z,2.33
2018-01-29T12:29:55.233Z,1.60
2018-01-29T12:32:23.530Z,1.70
2018-01-29T12:34:51.072Z,2.80
2018-01-29T12:37:18.566Z,2.17
2018-01-29T12:39:46.806Z,2.00
2018-01-29T12:42:14.286Z,2.70
2018-01-29T12:44:42.509Z,2.00
2018-01-29T12:47:09.975Z,2.27
2018-01-29T12:49:37.555Z,3.63
2018-01-29T12:52:05.023Z,2.37
2018-01-29T12:54:32.490Z,1.93
2018-01-29T12:57:00.722Z,2.13
2018-01-29T12:59:28.203Z,2.70
2018-01-29T13:01:55.712Z,2.30
2018-01-29T13:04:23.210Z,1.97
2018-01-29T13:06:50.678Z,2.63
2018-01-29T13:09:18.363Z,2.47
2018-01-29T13:11:46.595Z,2.40
2018-01-29T13:14:14.054Z,2.60
2018-01-29T13:16:41.528Z,2.93
2018-01-29T13:19:09.003Z,2.30
2018-01-29T13:21:37.226Z,2.60
2018-01-29T13:24:04.686Z,2.23
2018-01-29T13:26:32.166Z,1.80
2018-01-29T13:29:00.339Z,2.10
2018-01-29T13:31:27.799Z,2.03
2018-01-29T13:33:55.262Z,2.00
2018-01-29T13:36:22.813Z,2.80
2018-01-29T13:38:50.379Z,2.17
2018-01-29T13:41:18.190Z,2.20
2018-01-29T13:43:45.694Z,2.33
2018-01-29T13:46:14.694Z,2.47
2018-01-29T13:48:42.151Z,2.90
2018-01-29T13:51:09.609Z,1.90
2018-01-29T13:53:37.091Z,2.40
2018-01-29T13:56:05.314Z,2.37
2018-01-29T13:58:32.770Z,3.37
2018-01-29T14:01:00.243Z,2.63
2018-01-29T14:03:27.710Z,2.73
2018-01-29T14:05:55.943Z,2.60
2018-01-29T14:08:23.420Z,2.43
2018-01-29T14:10:50.995Z,2.43
2018-01-29T14:13:18.462Z,2.90
2018-01-29T14:15:46.733Z,2.53
2018-01-29T14:18:14.178Z,3.07
2018-01-29T14:20:41.743Z,2.33
2018-01-29T14:23:09.211Z,2.83
2018-01-29T14:25:36.668Z,3.40
2018-01-29T14:28:04.126Z,3.27
2018-01-29T14:30:32.371Z,2.97
2018-01-29T14:33:00.519Z,3.10
2018-01-29T14:35:27.978Z,3.67
2018-01-29T14:37:55.442Z,3.83
2018-01-29T14:40:22.927Z,3.57
2018-01-29T14:42:50.381Z,3.20
2018-01-29T14:45:17.839Z,3.40
2018-01-29T14:47:45.315Z,5.07
2018-01-29T14:50:13.547Z,3.60
2018-01-29T14:52:41.006Z,3.40
2018-01-29T14:55:08.471Z,4.13
2018-01-29T14:57:35.942Z,4.20
2018-01-29T15:00:04.168Z,4.20
2018-01-29T15:02:31.685Z,4.20
2018-01-29T15:04:59.144Z,3.60
2018-01-29T15:07:26.593Z,4.33
2018-01-29T15:09:54.066Z,3.47
2018-01-29T15:12:22.317Z,3.93
2018-01-29T15:14:49.776Z,4.90
2018-01-29T15:17:17.335Z,4.13
2018-01-29T15:19:44.790Z,5.03
2018-01-29T15:22:12.259Z,4.97
2018-01-29T15:24:40.542Z,4.70
2018-01-29T15:27:08.763Z,4.80
2018-01-29T15:29:36.217Z,4.43
2018-01-29T15:32:03.682Z,7.57
2018-01-29T15:34:31.155Z,5.50
2018-01-29T15:36:59.442Z,5.50
2018-01-29T15:39:26.910Z,4.83
2018-01-29T15:41:54.369Z,5.50
2018-01-29T15:44:21.918Z,4.97
2018-01-29T15:46:50.899Z,7.40
2018-01-29T15:49:18.886Z,7.20
2018-01-29T15:51:46.342Z,5.00
2018-01-29T15:54:13.902Z,5.50
2018-01-29T15:56:41.454Z,5.63
2018-01-29T15:59:08.923Z,6.63
2018-01-29T16:01:36.395Z,6.17
2018-01-29T16:04:04.643Z,5.40
2018-01-29T16:06:32.105Z,4.93
2018-01-29T16:08:59.574Z,7.37
2018-01-29T16:11:27.798Z,4.50
2018-01-29T16:13:55.250Z,3.63
2018-01-29T16:16:22.733Z,3.47
2018-01-29T16:18:50.302Z,3.50
2018-01-29T16:21:18.794Z,4.30
2018-01-29T16:23:46.258Z,5.93
2018-01-29T16:26:14.474Z,4.70
2018-01-29T16:28:41.950Z,4.67
2018-01-29T16:31:09.428Z,3.20
2018-01-29T16:33:37.006Z,3.80
2018-01-29T16:36:05.319Z,3.80
2018-01-29T16:38:32.818Z,3.90
2018-01-29T16:41:00.390Z,3.10
2018-01-29T16:43:27.847Z,2.87
2018-01-29T16:45:55.401Z,3.57
2018-01-29T16:48:22.849Z,3.50
2018-01-29T16:50:50.309Z,3.93
2018-01-29T16:53:18.810Z,2.70
2018-01-29T16:55:47.029Z,4.40
2018-01-29T16:58:14.497Z,3.17
2018-01-29T17:00:41.954Z,3.10
2018-01-29T17:03:09.421Z,2.77
2018-01-29T17:05:37.676Z,3.27
2018-01-29T17:08:05.141Z,2.77
2018-01-29T17:10:32.610Z,4.10
2018-01-29T17:13:00.073Z,3.00
2018-01-29T17:15:27.532Z,3.30
2018-01-29T17:17:55.003Z,4.30
2018-01-29T17:20:22.539Z,3.73
2018-01-29T17:22:49.995Z,4.20
2018-01-29T17:25:18.110Z,3.30
2018-01-29T17:27:46.343Z,4.00
2018-01-29T17:30:13.927Z,3.27
2018-01-29T17:32:42.161Z,3.13
2018-01-29T17:35:09.618Z,3.20
2018-01-29T17:37:37.146Z,3.70
2018-01-29T17:40:04.676Z,3.80
2018-01-29T17:42:32.176Z,2.40
2018-01-29T17:44:59.647Z,2.93
2018-01-29T17:47:27.112Z,2.50
2018-01-29T17:49:54.975Z,2.57
2018-01-29T17:52:22.932Z,2.77
2018-01-29T17:54:50.426Z,2.07
2018-01-29T17:57:18.090Z,2.30
2018-01-29T17:59:45.550Z,2.40
2018-01-29T18:02:13.025Z,2.10
2018-01-29T18:04:41.249Z,3.53
2018-01-29T18:07:08.718Z,2.30
2018-01-29T18:09:36.191Z,2.30
2018-01-29T18:12:03.654Z,2.30
2018-01-29T18:14:31.942Z,2.30
2018-01-29T18:17:00.186Z,2.97
2018-01-29T18:19:27.638Z,2.70
2018-01-29T18:21:55.094Z,2.53
2018-01-29T18:24:22.583Z,2.40
2018-01-29T18:26:50.901Z,2.10
2018-01-29T18:29:18.403Z,2.53
2018-01-29T18:31:45.887Z,3.37
2018-01-29T18:34:14.163Z,3.90
2018-01-29T18:36:41.576Z,3.53
2018-01-29T18:39:09.145Z,2.63
2018-01-29T18:41:36.607Z,2.47
2018-01-29T18:44:04.079Z,3.30
2018-01-29T18:46:31.538Z,2.77
2018-01-29T18:48:59.850Z,2.20
2018-01-29T18:51:27.281Z,2.77
2018-01-29T18:53:55.498Z,2.50
2018-01-29T18:56:23.867Z,2.80
2018-01-29T18:58:51.358Z,2.27
2018-01-29T19:01:19.248Z,2.60
2018-01-29T19:03:47.064Z,2.77
2018-01-29T19:06:18.749Z,3.10
2018-01-29T19:08:48.476Z,2.40
2018-01-29T19:11:16.035Z,3.90
2018-01-29T19:13:44.297Z,2.40
2018-01-29T19:16:11.860Z,2.73
2018-01-29T19:18:40.333Z,3.23
2018-01-29T19:21:07.798Z,3.80
2018-01-29T19:23:35.319Z,3.03
2018-01-29T19:26:02.977Z,2.83
2018-01-29T19:28:30.478Z,2.43
2018-01-29T19:30:58.017Z,3.00
2018-01-29T19:33:25.514Z,3.00
2018-01-29T19:35:53.077Z,1.90
2018-01-29T19:38:21.348Z,1.90
2018-01-29T19:40:49.667Z,2.77
2018-01-29T19:43:18.086Z,1.90
2018-01-29T19:45:45.932Z,2.60
2018-01-29T19:48:13.832Z,2.27
2018-01-29T19:50:42.377Z,2.60
2018-01-29T19:53:11.253Z,3.27
2018-01-29T19:55:38.765Z,3.20
2018-01-29T19:58:07.297Z,2.80
2018-01-29T20:00:36.468Z,2.67
2018-01-29T20:03:05.098Z,2.67
2018-01-29T20:05:33.308Z,1.87
2018-01-29T20:08:01.207Z,2.50
2018-01-29T20:10:29.752Z,3.10
2018-01-29T20:12:57.485Z,3.40
2018-01-29T20:15:25.209Z,2.50
2018-01-29T20:17:52.805Z,2.00
2018-01-29T20:20:22.054Z,2.50
2018-01-29T20:22:49.717Z,2.97
2018-01-29T20:25:17.223Z,3.00
2018-01-29T20:27:45.428Z,3.77
2018-01-29T20:30:15.719Z,2.90
2018-01-29T20:32:43.981Z,2.80
2018-01-29T20:35:12.071Z,3.10
2018-01-29T20:37:39.849Z,3.53
2018-01-29T20:40:08.348Z,5.80
2018-01-29T20:42:36.413Z,2.07
2018-01-29T20:45:04.481Z,2.17
2018-01-29T20:47:33.312Z,2.30
2018-01-29T20:50:01.173Z,2.97
2018-01-29T20:52:30.526Z,4.00
2018-01-29T20:55:00.138Z,3.77
2018-01-29T20:57:33.233Z,3.40
2018-01-29T21:00:00.763Z,3.57
2018-01-29T21:02:29.699Z,3.40
2018-01-29T21:04:57.263Z,4.00
2018-01-29T21:07:24.785Z,3.50
2018-01-29T21:09:52.383Z,3.07
2018-01-29T21:12:20.866Z,3.43
2018-01-29T21:14:48.384Z,2.50
2018-01-29T21:17:15.897Z,3.40
2018-01-29T21:19:43.399Z,3.20
2018-01-29T21:22:11.670Z,2.77
2018-01-29T21:24:40.805Z,3.90
2018-01-29T21:27:08.323Z,2.70
2018-01-29T21:29:35.837Z,3.20
2018-01-29T21:32:03.299Z,2.73
2018-01-29T21:34:30.848Z,2.60
2018-01-29T21:36:58.481Z,3.40
2018-01-29T21:39:26.058Z,4.93
2018-01-29T21:41:53.578Z,4.80
2018-01-29T21:44:21.028Z,3.80
2018-01-29T21:46:48.495Z,4.07
2018-01-29T21:49:18.002Z,3.10
2018-01-29T21:51:45.565Z,3.33
2018-01-29T21:54:13.903Z,2.97
2018-01-29T21:56:41.418Z,3.73
2018-01-29T21:59:09.325Z,3.90
2018-01-29T22:01:37.787Z,2.50
2018-01-29T22:04:05.319Z,2.43
2018-01-29T22:06:32.866Z,2.90
2018-01-29T22:09:01.131Z,2.27
2018-01-29T22:11:28.642Z,1.90
2018-01-29T22:13:56.126Z,2.20
2018-01-29T22:16:23.587Z,2.60
2018-01-29T22:18:51.076Z,3.90
2018-01-29T22:21:19.359Z,2.50
2018-01-29T22:23:46.845Z,3.77
2018-01-29T22:26:14.398Z,3.30
2018-01-29T22:28:41.916Z,3.00
2018-01-29T22:31:10.189Z,3.10
2018-01-29T22:33:39.386Z,2.93
2018-01-29T22:36:07.658Z,4.37
2018-01-29T22:38:35.894Z,3.00
2018-01-29T22:41:03.450Z,3.17
2018-01-29T22:43:30.934Z,2.70
2018-01-29T22:45:58.420Z,4.30
2018-01-29T22:48:26.651Z,3.60
2018-01-29T22:50:54.150Z,3.33
2018-01-29T22:53:22.395Z,2.90
2018-01-29T22:55:50.697Z,3.10
2018-01-29T22:58:19.836Z,4.00
2018-01-29T23:00:47.648Z,2.63
2018-01-29T23:03:15.911Z,3.40
2018-01-29T23:05:44.907Z,2.90
2018-01-29T23:08:12.412Z,4.60
2018-01-29T23:10:40.211Z,3.23
2018-01-29T23:13:07.714Z,2.30
2018-01-29T23:15:35.498Z,3.33
2018-01-29T23:18:03.023Z,3.77
2018-01-29T23:20:32.296Z,2.90
2018-01-29T23:23:00.658Z,2.90
2018-01-29T23:25:28.262Z,3.13
2018-01-29T23:27:55.753Z,3.80
2018-01-29T23:30:23.262Z,4.60
2018-01-29T23:32:52.247Z,2.37
2018-01-29T23:35:19.845Z,2.63
2018-01-29T23:37:48.103Z,2.90
2018-01-29T23:40:15.563Z,2.50
2018-01-29T23:42:43.853Z,3.97
2018-01-29T23:45:11.390Z,2.80
2018-01-29T23:47:38.894Z,3.00
2018-01-29T23:50:06.398Z,3.70
2018-01-29T23:52:34.953Z,2.87
2018-01-29T23:55:02.467Z,4.63
2018-01-29T23:57:30.717Z,3.10
2018-01-29T23:59:59.638Z,3.70
